Time;durP1;ratioP1;P1;durP2;ratioP2;P2;SDS_P1;SDS_P2;PMS_P1;PMS_P2;Temp;Humidity;BMP_temperature;BMP_pressure;BME280_temperature;BME280_humidity;BME280_pressure;Samples;Min_cycle;Max_cycle;Signal;HPM_P1;HPM_P2
2023/12/05 00:01:45;;;;;;;18.30;11.75;;;1.00;99.90;;;;;;4973122;28;20034;-73
2023/12/05 00:04:10;;;;;;;23.35;13.68;;;1.20;99.90;;;;;;4971881;28;20038;-73
2023/12/05 00:06:36;;;;;;;22.77;14.68;;;1.20;99.90;;;;;;4971742;28;20049;-73
2023/12/05 00:09:03;;;;;;;19.95;12.80;;;1.10;99.90;;;;;;4971766;28;20097;-73
2023/12/05 00:11:29;;;;;;;22.20;13.80;;;1.20;99.90;;;;;;4972422;28;20113;-73
2023/12/05 00:13:54;;;;;;;21.08;13.15;;;1.10;99.90;;;;;;4971812;28;20677;-73
2023/12/05 00:16:20;;;;;;;22.33;14.93;;;1.10;99.90;;;;;;4972593;28;20042;-73
2023/12/05 00:18:49;;;;;;;24.17;13.63;;;1.10;99.90;;;;;;4973017;28;20483;-73
2023/12/05 00:21:18;;;;;;;21.35;13.05;;;1.10;99.90;;;;;;4971897;28;20078;-73
2023/12/05 00:23:43;;;;;;;24.13;14.05;;;1.00;99.90;;;;;;4971641;28;20058;-73
2023/12/05 00:26:09;;;;;;;23.38;13.07;;;1.00;99.90;;;;;;4971590;28;20399;-73
2023/12/05 00:28:35;;;;;;;24.10;14.80;;;1.00;99.90;;;;;;4971639;28;20495;-73
2023/12/05 00:31:00;;;;;;;21.17;12.88;;;1.00;99.90;;;;;;4971538;28;20090;-73
2023/12/05 00:33:26;;;;;;;21.30;13.23;;;1.00;99.90;;;;;;4971563;28;20062;-73
2023/12/05 00:35:51;;;;;;;22.08;12.10;;;1.00;99.90;;;;;;4970984;28;20039;-73
2023/12/05 00:38:17;;;;;;;20.02;12.15;;;1.10;99.90;;;;;;4971477;28;20396;-73
2023/12/05 00:40:43;;;;;;;22.38;12.52;;;1.10;99.90;;;;;;4971572;28;20043;-73
2023/12/05 00:43:08;;;;;;;22.48;12.02;;;1.00;99.90;;;;;;4971501;28;20046;-74
2023/12/05 00:45:34;;;;;;;21.80;12.52;;;0.90;99.90;;;;;;4970780;28;20409;-73
2023/12/05 00:47:59;;;;;;;22.63;13.30;;;0.90;99.90;;;;;;4971192;28;20045;-73
2023/12/05 00:50:25;;;;;;;22.40;11.88;;;0.90;99.90;;;;;;4971592;28;20058;-72
2023/12/05 00:52:51;;;;;;;21.52;12.52;;;0.90;99.90;;;;;;4972610;28;20497;-73
2023/12/05 00:55:16;;;;;;;26.42;13.60;;;0.90;99.90;;;;;;4971290;28;20039;-73
2023/12/05 00:57:42;;;;;;;22.67;13.48;;;1.00;99.90;;;;;;4971088;28;20047;-73
2023/12/05 01:00:10;;;;;;;20.52;12.52;;;1.00;99.90;;;;;;4971364;28;20459;-73
2023/12/05 01:02:36;;;;;;;20.88;12.23;;;1.00;99.90;;;;;;4972516;28;20558;-73
2023/12/05 01:05:02;;;;;;;21.88;13.25;;;1.10;99.90;;;;;;4970801;28;20066;-73
2023/12/05 01:07:28;;;;;;;24.55;13.90;;;1.10;99.90;;;;;;4972521;28;20046;-73
2023/12/05 01:09:53;;;;;;;23.33;13.90;;;1.10;99.90;;;;;;4971589;28;20495;-73
2023/12/05 01:12:19;;;;;;;24.55;13.57;;;1.10;99.90;;;;;;4971263;28;20039;-74
2023/12/05 01:14:45;;;;;;;22.77;13.20;;;1.10;99.90;;;;;;4970840;28;20090;-73
2023/12/05 01:17:10;;;;;;;22.45;12.38;;;0.90;99.90;;;;;;4972102;28;20043;-73
2023/12/05 01:19:37;;;;;;;20.65;13.20;;;1.00;99.90;;;;;;4971186;28;20046;-73
2023/12/05 01:22:03;;;;;;;21.75;12.93;;;0.90;99.90;;;;;;4973615;28;20074;-73
2023/12/05 01:24:29;;;;;;;22.65;13.57;;;0.90;99.90;;;;;;4974169;28;20414;-73
2023/12/05 01:26:54;;;;;;;24.00;13.10;;;0.90;99.90;;;;;;4974309;28;20047;-73
2023/12/05 01:29:20;;;;;;;21.27;13.27;;;1.00;99.90;;;;;;4975766;28;20039;-72
2023/12/05 01:31:46;;;;;;;21.60;13.32;;;0.90;99.90;;;;;;4975867;28;20470;-73
2023/12/05 01:34:11;;;;;;;22.23;13.25;;;0.90;99.90;;;;;;4974525;28;20046;-74
2023/12/05 01:36:37;;;;;;;25.08;13.43;;;1.00;99.90;;;;;;4974236;28;20043;-73
2023/12/05 01:39:02;;;;;;;22.00;12.55;;;0.90;99.90;;;;;;4974812;28;20045;-73
2023/12/05 01:41:28;;;;;;;26.58;14.82;;;0.90;99.90;;;;;;4974911;28;20477;-73
2023/12/05 01:43:54;;;;;;;22.85;13.05;;;1.00;99.90;;;;;;4976447;28;20053;-73
2023/12/05 01:46:20;;;;;;;22.10;13.07;;;1.00;99.90;;;;;;4974802;28;20035;-73
2023/12/05 01:48:47;;;;;;;21.30;12.88;;;1.00;99.90;;;;;;4974876;28;20074;-73
2023/12/05 01:51:13;;;;;;;24.73;13.70;;;0.90;99.90;;;;;;4975749;28;20046;-73
2023/12/05 01:53:40;;;;;;;23.48;14.82;;;0.90;99.90;;;;;;4975147;28;20486;-73
2023/12/05 01:56:09;;;;;;;26.63;15.13;;;1.10;99.90;;;;;;4958262;28;20042;-73
2023/12/05 01:58:37;;;;;;;22.25;12.85;;;1.00;99.90;;;;;;4974533;28;20105;-73
2023/12/05 02:01:04;;;;;;;22.92;12.73;;;1.00;99.90;;;;;;4974689;28;20454;-74
2023/12/05 02:03:31;;;;;;;21.55;13.77;;;1.00;99.90;;;;;;4974392;28;20515;-73
2023/12/05 02:05:57;;;;;;;22.90;13.27;;;0.90;99.90;;;;;;4976320;28;20130;-73
2023/12/05 02:08:26;;;;;;;25.98;15.05;;;1.00;99.90;;;;;;4974633;28;20050;-73
2023/12/05 02:10:52;;;;;;;25.55;14.38;;;0.90;99.90;;;;;;4974273;28;20458;-73
2023/12/05 02:13:18;;;;;;;24.05;14.55;;;1.00;99.90;;;;;;4971452;28;20113;-73
2023/12/05 02:15:43;;;;;;;24.67;12.68;;;1.00;99.90;;;;;;4954637;29;20047;-73
2023/12/05 02:18:20;;;;;;;23.42;13.73;;;0.90;99.90;;;;;;4953450;29;20496;-73
2023/12/05 02:21:05;;;;;;;23.20;13.32;;;0.80;99.90;;;;;;4955147;29;20079;-73
2023/12/05 02:23:33;;;;;;;24.33;13.52;;;1.00;99.90;;;;;;4954791;29;20074;-73
2023/12/05 02:26:25;;;;;;;21.88;13.15;;;0.90;99.90;;;;;;4954360;28;20043;-73
2023/12/05 02:28:51;;;;;;;23.63;14.02;;;0.90;99.90;;;;;;4954665;29;20086;-73
2023/12/05 02:31:17;;;;;;;25.77;14.15;;;1.00;99.90;;;;;;4938744;29;20474;-73
2023/12/05 02:33:43;;;;;;;21.33;13.95;;;0.90;99.90;;;;;;4954421;28;20085;-74
2023/12/05 02:36:31;;;;;;;25.85;14.55;;;0.70;99.90;;;;;;4938121;29;20049;-73
2023/12/05 02:39:17;;;;;;;24.17;13.88;;;0.90;99.90;;;;;;4954572;29;20047;-73
2023/12/05 02:41:45;;;;;;;22.85;13.13;;;0.90;99.90;;;;;;4954605;29;20711;-73
2023/12/05 02:44:14;;;;;;;27.27;14.45;;;0.90;99.90;;;;;;4954607;28;20122;-74
2023/12/05 02:46:42;;;;;;;27.50;15.00;;;0.70;99.90;;;;;;4953630;29;20082;-74
2023/12/05 02:49:09;;;;;;;25.40;15.23;;;0.90;99.90;;;;;;4954205;28;20408;-73
2023/12/05 02:51:35;;;;;;;23.77;14.38;;;0.90;99.90;;;;;;4953979;29;20051;-73
2023/12/05 02:54:03;;;;;;;26.08;13.57;;;0.70;99.90;;;;;;4953659;29;20622;-74
2023/12/05 02:56:38;;;;;;;23.25;13.80;;;0.80;99.90;;;;;;4953377;29;20046;-73
2023/12/05 02:59:04;;;;;;;24.10;14.68;;;0.70;99.90;;;;;;4953548;29;20050;-74
2023/12/05 03:01:32;;;;;;;26.67;14.55;;;0.70;99.90;;;;;;4953719;29;20093;-73
2023/12/05 03:03:57;;;;;;;28.73;15.43;;;0.80;99.90;;;;;;4953078;28;20066;-73
2023/12/05 03:06:24;;;;;;;24.55;14.70;;;0.80;99.90;;;;;;4953103;29;20507;-74
2023/12/05 03:08:49;;;;;;;25.98;15.00;;;0.90;99.90;;;;;;4953201;29;20062;-73
2023/12/05 03:11:15;;;;;;;28.67;14.93;;;0.80;99.90;;;;;;4953711;29;20105;-74
2023/12/05 03:13:41;;;;;;;25.77;14.30;;;0.80;99.90;;;;;;4953743;29;20546;-73
2023/12/05 03:16:08;;;;;;;24.35;14.68;;;0.70;99.90;;;;;;4953186;29;20071;-73
2023/12/05 03:18:33;;;;;;;23.85;14.45;;;0.70;99.90;;;;;;4953427;29;20122;-74
2023/12/05 03:20:59;;;;;;;27.80;17.17;;;0.70;99.90;;;;;;4953377;28;20081;-74
2023/12/05 03:23:26;;;;;;;23.75;14.55;;;0.80;99.90;;;;;;4937920;29;20040;-74
2023/12/05 03:25:51;;;;;;;23.38;14.93;;;0.80;99.90;;;;;;4953117;29;20066;-74
2023/12/05 03:28:17;;;;;;;26.35;15.55;;;0.60;99.90;;;;;;4953291;29;20531;-74
2023/12/05 03:30:43;;;;;;;25.08;15.32;;;0.80;99.90;;;;;;4953143;29;20039;-74
2023/12/05 03:33:08;;;;;;;29.30;16.23;;;0.70;99.90;;;;;;4953118;29;20539;-74
2023/12/05 03:35:34;;;;;;;29.02;16.00;;;0.70;99.90;;;;;;4952935;28;20050;-74
2023/12/05 03:37:59;;;;;;;24.98;14.68;;;0.80;99.90;;;;;;4953009;29;20047;-74
2023/12/05 03:40:25;;;;;;;27.33;16.00;;;0.80;99.90;;;;;;4953499;29;20506;-74
2023/12/05 03:42:51;;;;;;;32.13;16.00;;;0.80;99.90;;;;;;4953188;29;20121;-74
2023/12/05 03:45:16;;;;;;;24.73;15.15;;;0.80;99.90;;;;;;4952038;28;20047;-74
2023/12/05 03:47:42;;;;;;;27.77;17.23;;;0.60;99.90;;;;;;4952310;28;20050;-74
2023/12/05 03:50:08;;;;;;;28.05;15.30;;;0.70;99.90;;;;;;4952634;29;20035;-74
2023/12/05 03:52:33;;;;;;;26.52;15.95;;;0.70;99.90;;;;;;4936973;29;20071;-74
2023/12/05 03:54:59;;;;;;;24.58;15.23;;;0.70;99.90;;;;;;4952717;29;20039;-74
2023/12/05 03:57:25;;;;;;;30.42;17.10;;;0.70;99.90;;;;;;4952515;28;20044;-74
2023/12/05 03:59:50;;;;;;;28.63;16.85;;;0.80;99.90;;;;;;4968771;28;20537;-74
2023/12/05 04:02:16;;;;;;;24.33;15.60;;;0.80;99.90;;;;;;4952712;29;20039;-74
2023/12/05 04:04:41;;;;;;;27.73;16.27;;;0.80;99.90;;;;;;4952443;29;20039;-74
2023/12/05 04:07:07;;;;;;;32.63;19.05;;;0.70;99.90;;;;;;4952419;29;20078;-74
2023/12/05 04:09:32;;;;;;;31.58;17.58;;;0.60;99.90;;;;;;4952422;29;20058;-74
2023/12/05 04:11:58;;;;;;;28.88;16.05;;;0.70;99.90;;;;;;4952473;29;20046;-74
2023/12/05 04:14:24;;;;;;;26.27;15.73;;;0.70;99.90;;;;;;4952361;29;20093;-74
2023/12/05 04:16:50;;;;;;;29.95;15.88;;;0.70;99.90;;;;;;4951994;29;20051;-74
2023/12/05 04:19:16;;;;;;;26.58;15.50;;;0.70;99.90;;;;;;4952556;28;20121;-74
2023/12/05 04:21:41;;;;;;;27.65;16.50;;;0.90;99.90;;;;;;4952593;29;20043;-74
2023/12/05 04:24:07;;;;;;;31.23;16.83;;;0.80;99.90;;;;;;4952515;29;20039;-74
2023/12/05 04:26:33;;;;;;;32.30;16.70;;;0.70;99.90;;;;;;4952115;29;20047;-74
2023/12/05 04:28:58;;;;;;;29.77;17.00;;;0.70;99.90;;;;;;4952500;29;20069;-74
2023/12/05 04:31:26;;;;;;;26.77;16.10;;;0.70;99.90;;;;;;4952577;29;20043;-74
2023/12/05 04:33:51;;;;;;;31.38;17.75;;;0.90;99.90;;;;;;4952719;29;20376;-74
2023/12/05 04:36:17;;;;;;;30.30;17.45;;;0.80;99.90;;;;;;4953160;29;20066;-74
2023/12/05 04:38:42;;;;;;;27.52;16.00;;;0.90;99.90;;;;;;4953655;29;20051;-74
2023/12/05 04:41:08;;;;;;;30.38;17.33;;;0.90;99.90;;;;;;4953531;29;20045;-74
2023/12/05 04:43:34;;;;;;;30.48;16.85;;;0.90;99.90;;;;;;4952641;29;20098;-74
2023/12/05 04:45:59;;;;;;;26.73;15.55;;;0.80;99.90;;;;;;4952006;29;20039;-74
2023/12/05 04:48:25;;;;;;;31.40;17.20;;;0.70;99.90;;;;;;4952427;29;20082;-74
2023/12/05 04:50:51;;;;;;;29.80;16.83;;;0.80;99.90;;;;;;4952490;29;20035;-74
2023/12/05 04:53:16;;;;;;;27.88;17.15;;;0.80;99.90;;;;;;4952479;29;20054;-74
2023/12/05 04:55:42;;;;;;;29.13;16.40;;;0.70;99.90;;;;;;4951845;29;20082;-74
2023/12/05 04:58:08;;;;;;;30.80;17.25;;;0.80;99.90;;;;;;4954756;28;20047;-74
2023/12/05 05:00:34;;;;;;;31.60;16.52;;;0.80;99.90;;;;;;4956038;29;20114;-74
2023/12/05 05:03:01;;;;;;;32.15;16.63;;;0.70;99.90;;;;;;4955891;29;20046;-74
2023/12/05 05:05:26;;;;;;;30.00;17.35;;;0.80;99.90;;;;;;4955674;29;20094;-74
2023/12/05 05:07:52;;;;;;;29.33;16.33;;;0.80;99.90;;;;;;4955920;29;20125;-74
2023/12/05 05:10:18;;;;;;;33.00;18.13;;;0.90;99.90;;;;;;4955862;29;20050;-74
2023/12/05 05:12:44;;;;;;;28.23;15.63;;;0.70;99.90;;;;;;4955716;28;20047;-74
2023/12/05 05:15:09;;;;;;;26.67;14.65;;;0.90;99.90;;;;;;4955634;29;20049;-74
2023/12/05 05:17:35;;;;;;;30.77;17.48;;;0.80;99.90;;;;;;4955443;29;20050;-74
2023/12/05 05:20:01;;;;;;;28.38;16.20;;;0.70;99.90;;;;;;4955734;28;20678;-74
2023/12/05 05:22:26;;;;;;;29.05;16.98;;;0.90;99.90;;;;;;4956862;29;20058;-74
2023/12/05 05:24:52;;;;;;;32.25;17.95;;;0.90;99.90;;;;;;4955099;29;20509;-74
2023/12/05 05:27:18;;;;;;;31.52;17.17;;;0.70;99.90;;;;;;4955371;29;20035;-74
2023/12/05 05:29:43;;;;;;;31.50;16.88;;;0.90;99.90;;;;;;4955678;29;20494;-74
2023/12/05 05:32:09;;;;;;;28.77;16.75;;;0.80;99.90;;;;;;4955409;29;20039;-74
2023/12/05 05:34:35;;;;;;;32.78;17.98;;;0.70;99.90;;;;;;4955311;28;20050;-74
2023/12/05 05:37:00;;;;;;;33.67;16.73;;;0.70;99.90;;;;;;4955011;29;20514;-74
2023/12/05 05:39:26;;;;;;;29.55;16.17;;;0.80;99.90;;;;;;4955344;29;20085;-74
2023/12/05 05:41:52;;;;;;;30.48;17.20;;;0.90;99.90;;;;;;4955214;29;20514;-74
2023/12/05 05:44:18;;;;;;;28.95;16.58;;;0.70;99.90;;;;;;4955139;28;20039;-74
2023/12/05 05:46:44;;;;;;;34.42;16.95;;;0.70;99.90;;;;;;4956385;28;20094;-74
2023/12/05 05:49:09;;;;;;;29.05;17.63;;;0.90;99.90;;;;;;4954998;29;20051;-74
2023/12/05 05:51:35;;;;;;;29.13;16.58;;;0.80;99.90;;;;;;4954546;29;20050;-74
2023/12/05 05:54:01;;;;;;;31.52;17.40;;;0.80;99.90;;;;;;4955054;29;20047;-74
2023/12/05 05:56:26;;;;;;;32.70;17.88;;;0.90;99.90;;;;;;4954612;29;20128;-74
2023/12/05 05:58:52;;;;;;;37.60;18.48;;;0.70;99.90;;;;;;4955070;28;20499;-74
2023/12/05 06:01:17;;;;;;;32.30;19.23;;;0.70;99.90;;;;;;4955067;29;20076;-74
2023/12/05 06:03:44;;;;;;;32.88;17.08;;;0.80;99.90;;;;;;4954834;29;20492;-74
2023/12/05 06:06:10;;;;;;;31.55;16.15;;;0.80;99.90;;;;;;4954424;28;20050;-74
2023/12/05 06:08:35;;;;;;;32.33;17.73;;;0.70;99.90;;;;;;4953428;28;20118;-74
2023/12/05 06:11:01;;;;;;;31.83;17.83;;;0.80;99.90;;;;;;4954664;29;20499;-74
2023/12/05 06:13:27;;;;;;;32.67;19.15;;;0.70;99.90;;;;;;4954571;28;20047;-74
2023/12/05 06:15:52;;;;;;;36.22;19.10;;;0.90;99.90;;;;;;4954307;28;20541;-74
2023/12/05 06:18:18;;;;;;;33.47;18.10;;;0.80;99.90;;;;;;4954557;29;20426;-74
2023/12/05 06:20:44;;;;;;;31.08;16.45;;;0.70;99.90;;;;;;4954568;29;20043;-74
2023/12/05 06:23:10;;;;;;;34.20;18.85;;;0.80;99.90;;;;;;4954823;29;20050;-74
2023/12/05 06:25:35;;;;;;;31.83;17.52;;;0.70;99.90;;;;;;4954282;29;20039;-74
2023/12/05 06:28:01;;;;;;;30.25;17.35;;;0.80;99.90;;;;;;4954325;29;20043;-74
2023/12/05 06:30:27;;;;;;;34.92;18.00;;;0.80;99.90;;;;;;4954160;28;20051;-74
2023/12/05 06:32:53;;;;;;;36.58;18.45;;;0.60;99.90;;;;;;4954477;28;20058;-74
2023/12/05 06:35:18;;;;;;;34.80;18.38;;;0.80;99.90;;;;;;4953873;29;20494;-74
2023/12/05 06:37:44;;;;;;;34.90;18.40;;;0.70;99.90;;;;;;4954031;29;20051;-74
2023/12/05 06:40:10;;;;;;;29.63;17.38;;;0.60;99.90;;;;;;4954173;29;20126;-74
2023/12/05 06:42:37;;;;;;;38.72;17.95;;;0.70;99.90;;;;;;4937998;29;20042;-74
2023/12/05 06:45:03;;;;;;;29.92;16.55;;;0.70;99.90;;;;;;4954022;29;20043;-74
2023/12/05 06:47:28;;;;;;;35.42;18.23;;;0.70;99.90;;;;;;4953899;29;20130;-74
2023/12/05 06:49:54;;;;;;;33.13;17.98;;;0.80;99.90;;;;;;4953977;29;20694;-74
2023/12/05 06:52:20;;;;;;;35.20;16.70;;;0.80;99.90;;;;;;4953927;28;20102;-74
2023/12/05 06:54:46;;;;;;;32.45;17.40;;;0.60;99.90;;;;;;4954041;29;20479;-74
2023/12/05 06:57:11;;;;;;;28.83;16.80;;;0.70;99.90;;;;;;4953760;29;20546;-74
2023/12/05 06:59:38;;;;;;;31.65;16.73;;;0.80;99.90;;;;;;4954100;29;20050;-74
2023/12/05 07:02:04;;;;;;;33.47;17.35;;;0.60;99.90;;;;;;4954833;29;20039;-75
2023/12/05 07:04:30;;;;;;;33.10;17.83;;;0.60;99.90;;;;;;4953767;29;20047;-75
2023/12/05 07:06:56;;;;;;;32.75;17.77;;;0.70;99.90;;;;;;4953684;28;20138;-75
2023/12/05 07:09:22;;;;;;;33.17;17.35;;;0.80;99.90;;;;;;4953795;29;20043;-75
2023/12/05 07:11:48;;;;;;;33.13;17.90;;;0.60;99.90;;;;;;4953867;29;20046;-75
2023/12/05 07:14:13;;;;;;;30.63;18.00;;;0.80;99.90;;;;;;4953899;29;20090;-75
2023/12/05 07:16:39;;;;;;;34.80;17.38;;;0.80;99.90;;;;;;4953387;28;20047;-75
2023/12/05 07:19:05;;;;;;;31.98;17.38;;;0.70;99.90;;;;;;4953226;28;20129;-75
2023/12/05 07:21:30;;;;;;;33.70;16.58;;;0.60;99.90;;;;;;4952920;29;20406;-75
2023/12/05 07:23:56;;;;;;;31.02;17.38;;;0.60;99.90;;;;;;4956947;28;20050;-75
2023/12/05 07:26:22;;;;;;;31.45;18.05;;;0.70;99.90;;;;;;4971916;28;20043;-74
2023/12/05 07:28:48;;;;;;;31.90;17.02;;;0.60;99.90;;;;;;4972514;28;20398;-74
2023/12/05 07:31:13;;;;;;;31.95;17.33;;;0.80;99.90;;;;;;4972670;28;20047;-75
2023/12/05 07:33:39;;;;;;;30.10;17.58;;;0.80;99.90;;;;;;4973488;28;20050;-75
2023/12/05 07:36:05;;;;;;;34.95;17.42;;;0.60;99.90;;;;;;4971809;28;20038;-75
2023/12/05 07:38:32;;;;;;;30.48;16.73;;;0.60;99.90;;;;;;4972361;28;20089;-75
2023/12/05 07:40:58;;;;;;;33.05;17.88;;;0.80;99.90;;;;;;4972156;28;20544;-75
2023/12/05 07:43:24;;;;;;;30.75;16.23;;;0.70;99.90;;;;;;4972159;28;20039;-75
2023/12/05 07:45:50;;;;;;;29.02;16.33;;;0.80;99.90;;;;;;4972216;28;20069;-75
2023/12/05 07:48:15;;;;;;;28.17;16.50;;;0.70;99.90;;;;;;4972282;28;20486;-75
2023/12/05 07:50:41;;;;;;;31.17;17.88;;;0.80;99.90;;;;;;4972518;28;20058;-75
2023/12/05 07:53:07;;;;;;;31.05;17.63;;;0.60;99.90;;;;;;4972198;28;20486;-74
2023/12/05 07:55:32;;;;;;;36.50;18.48;;;0.80;99.90;;;;;;4972882;28;20093;-75
2023/12/05 07:57:58;;;;;;;33.85;17.73;;;0.70;99.90;;;;;;4972043;28;20046;-74
2023/12/05 08:00:24;;;;;;;33.95;18.33;;;0.80;99.90;;;;;;4971752;28;20035;-74
2023/12/05 08:02:49;;;;;;;33.10;18.27;;;0.80;99.90;;;;;;4972764;28;20039;-75
2023/12/05 08:05:15;;;;;;;32.65;17.88;;;0.80;99.90;;;;;;4971777;28;20069;-75
2023/12/05 08:07:41;;;;;;;35.90;17.90;;;0.70;99.90;;;;;;4973015;28;20495;-75
2023/12/05 08:10:08;;;;;;;32.30;17.20;;;0.60;99.90;;;;;;4971946;28;20046;-75
2023/12/05 08:12:34;;;;;;;37.97;20.00;;;0.70;99.90;;;;;;4973246;28;20126;-74
2023/12/05 08:15:01;;;;;;;32.42;18.48;;;0.70;99.90;;;;;;4972581;28;20074;-75
2023/12/05 08:17:26;;;;;;;32.67;17.92;;;0.60;99.90;;;;;;4971625;28;20520;-74
2023/12/05 08:19:53;;;;;;;32.72;17.55;;;0.60;99.90;;;;;;4973211;28;20042;-74
2023/12/05 08:22:18;;;;;;;33.97;17.70;;;0.80;99.90;;;;;;4971886;28;20038;-74
2023/12/05 08:24:44;;;;;;;32.88;18.25;;;0.70;99.90;;;;;;4971344;28;20506;-74
2023/12/05 08:27:10;;;;;;;31.58;17.85;;;0.80;99.90;;;;;;4971444;28;20262;-74
2023/12/05 08:29:35;;;;;;;32.97;16.90;;;0.70;99.90;;;;;;4971974;28;20038;-75
2023/12/05 08:32:02;;;;;;;31.58;17.35;;;0.70;99.90;;;;;;4973016;28;20046;-74
2023/12/05 08:34:28;;;;;;;33.22;18.00;;;0.80;99.90;;;;;;4976604;28;20151;-74
2023/12/05 08:36:53;;;;;;;35.50;17.95;;;0.70;99.90;;;;;;4975257;28;20499;-74
2023/12/05 08:39:19;;;;;;;34.97;18.90;;;0.80;99.90;;;;;;4975490;28;20111;-74
2023/12/05 08:41:44;;;;;;;35.13;19.25;;;0.60;99.90;;;;;;4975780;28;20039;-75
2023/12/05 08:44:10;;;;;;;29.67;16.05;;;0.80;99.90;;;;;;4975633;28;20050;-74
2023/12/05 08:46:35;;;;;;;34.65;18.58;;;0.80;99.90;;;;;;4975291;28;20564;-74
2023/12/05 08:49:01;;;;;;;36.20;20.17;;;0.70;99.90;;;;;;4976504;28;20042;-74
2023/12/05 08:51:27;;;;;;;33.47;17.88;;;0.80;99.90;;;;;;4975965;28;20077;-74
2023/12/05 08:53:53;;;;;;;31.80;16.70;;;0.80;99.90;;;;;;4974472;28;20363;-74
2023/12/05 08:56:18;;;;;;;31.38;17.77;;;0.80;99.90;;;;;;4974765;28;20043;-74
2023/12/05 08:58:44;;;;;;;33.47;18.20;;;0.80;99.90;;;;;;4975745;28;20042;-75
2023/12/05 09:01:11;;;;;;;33.88;17.42;;;0.80;99.90;;;;;;4978301;28;20121;-74
2023/12/05 09:03:36;;;;;;;31.63;17.27;;;0.80;99.90;;;;;;4977328;28;20035;-75
2023/12/05 09:06:02;;;;;;;36.08;19.52;;;0.60;99.90;;;;;;4976974;28;20498;-75
2023/12/05 09:08:29;;;;;;;34.92;18.85;;;0.70;99.90;;;;;;4976335;28;20085;-75
2023/12/05 09:10:57;;;;;;;32.30;18.00;;;0.70;99.90;;;;;;4976893;28;20050;-75
2023/12/05 09:13:23;;;;;;;35.45;19.00;;;0.70;99.90;;;;;;4993350;28;20043;-75
2023/12/05 09:15:48;;;;;;;33.58;17.42;;;0.70;99.90;;;;;;4977624;28;20053;-75
2023/12/05 09:18:14;;;;;;;31.67;17.23;;;0.70;99.90;;;;;;4978687;28;20034;-75
2023/12/05 09:20:40;;;;;;;33.70;18.25;;;0.70;99.90;;;;;;4976883;28;20066;-74
2023/12/05 09:23:06;;;;;;;33.10;18.02;;;0.80;99.90;;;;;;4976873;28;20054;-75
2023/12/05 09:25:31;;;;;;;33.05;18.08;;;0.80;99.90;;;;;;4977327;28;20514;-75
2023/12/05 09:27:57;;;;;;;35.25;19.60;;;0.80;99.90;;;;;;4973146;28;20039;-74
2023/12/05 09:30:22;;;;;;;32.35;17.77;;;0.90;99.90;;;;;;4971646;28;20103;-74
2023/12/05 09:32:48;;;;;;;32.75;18.13;;;0.90;99.90;;;;;;4966972;28;20035;-74
2023/12/05 09:35:13;;;;;;;33.30;17.80;;;0.90;99.90;;;;;;4966394;28;20446;-75
2023/12/05 09:37:39;;;;;;;35.88;19.30;;;0.90;99.90;;;;;;4981741;28;20050;-75
2023/12/05 09:40:05;;;;;;;33.88;18.55;;;0.80;99.90;;;;;;4993703;28;20034;-74
2023/12/05 09:42:31;;;;;;;30.77;17.40;;;0.90;99.90;;;;;;4993900;28;20394;-74
2023/12/05 09:44:59;;;;;;;35.03;17.67;;;0.80;99.90;;;;;;4996471;28;20046;-75
2023/12/05 09:47:27;;;;;;;36.90;18.58;;;0.80;99.90;;;;;;4996248;28;20038;-74
2023/12/05 09:49:54;;;;;;;35.28;18.38;;;0.80;99.90;;;;;;4995636;28;20517;-74
2023/12/05 09:52:20;;;;;;;36.35;18.83;;;0.80;99.90;;;;;;4994810;28;20042;-75
2023/12/05 09:54:48;;;;;;;33.90;16.73;;;0.80;99.90;;;;;;4994513;28;20038;-74
2023/12/05 09:57:14;;;;;;;35.13;17.58;;;0.80;99.90;;;;;;4994877;28;20409;-74
2023/12/05 09:59:40;;;;;;;32.92;18.42;;;1.00;99.90;;;;;;4994502;28;20121;-75
2023/12/05 10:02:07;;;;;;;31.73;17.77;;;0.80;99.90;;;;;;4994982;28;20121;-75
2023/12/05 10:04:42;;;;;;;36.42;18.65;;;1.00;99.90;;;;;;4978989;28;20156;-75
2023/12/05 10:07:12;;;;;;;37.17;17.20;;;1.00;99.90;;;;;;4977887;28;20049;-74
2023/12/05 10:09:40;;;;;;;33.42;18.08;;;0.90;99.90;;;;;;4994500;28;20085;-75
2023/12/05 10:12:08;;;;;;;32.05;17.95;;;1.10;99.90;;;;;;4996884;28;20042;-75
2023/12/05 10:14:34;;;;;;;37.70;18.63;;;1.00;99.90;;;;;;4995121;28;20046;-75
2023/12/05 10:17:01;;;;;;;32.72;17.33;;;1.00;99.90;;;;;;4977441;28;20038;-75
2023/12/05 10:19:29;;;;;;;36.58;18.27;;;1.00;99.90;;;;;;4994873;28;20042;-75
2023/12/05 10:21:55;;;;;;;32.55;18.10;;;1.00;99.90;;;;;;4996242;28;20031;-75
2023/12/05 10:24:21;;;;;;;33.33;19.02;;;1.00;99.90;;;;;;4995009;28;20437;-76
2023/12/05 10:26:47;;;;;;;33.65;18.05;;;1.10;99.90;;;;;;4979921;28;20046;-75
2023/12/05 10:29:15;;;;;;;34.88;18.17;;;1.10;99.90;;;;;;4970078;28;20047;-74
2023/12/05 10:31:41;;;;;;;31.15;17.13;;;1.10;99.90;;;;;;4964011;28;20034;-74
2023/12/05 10:34:08;;;;;;;33.58;18.27;;;1.10;99.90;;;;;;4965762;28;20498;-74
2023/12/05 10:36:34;;;;;;;37.00;18.27;;;1.10;99.90;;;;;;4973946;28;20050;-74
2023/12/05 10:39:00;;;;;;;34.50;18.45;;;1.10;99.90;;;;;;4975404;28;20166;-74
2023/12/05 10:41:29;;;;;;;35.03;18.67;;;1.00;99.90;;;;;;4973849;28;20074;-75
2023/12/05 10:43:55;;;;;;;37.47;18.42;;;1.20;99.90;;;;;;4973667;28;20042;-74
2023/12/05 10:46:23;;;;;;;32.75;16.67;;;1.10;99.90;;;;;;4973771;28;20039;-74
2023/12/05 10:48:49;;;;;;;41.70;19.38;;;1.10;99.90;;;;;;4977078;28;20051;-75
2023/12/05 10:51:15;;;;;;;36.33;19.65;;;1.20;99.90;;;;;;4976490;28;20042;-74
2023/12/05 10:53:41;;;;;;;37.10;19.48;;;1.10;99.90;;;;;;4976048;28;20043;-75
2023/12/05 10:56:14;;;;;;;34.90;18.70;;;1.20;99.90;;;;;;4975436;28;20106;-75
2023/12/05 10:58:41;;;;;;;32.65;17.95;;;1.20;99.90;;;;;;4974933;28;20051;-74
2023/12/05 11:01:11;;;;;;;30.17;17.75;;;1.20;99.90;;;;;;4975353;28;20053;-74
2023/12/05 11:03:38;;;;;;;31.35;18.00;;;1.10;99.90;;;;;;4974965;28;20093;-74
2023/12/05 11:06:07;;;;;;;38.38;17.75;;;1.20;99.90;;;;;;4970205;28;20039;-74
2023/12/05 11:08:34;;;;;;;39.70;20.67;;;1.20;99.90;;;;;;4964002;28;20039;-74
2023/12/05 11:11:04;;;;;;;36.08;19.10;;;1.20;99.90;;;;;;4964529;28;20034;-74
2023/12/05 11:13:34;;;;;;;37.03;18.52;;;1.20;99.90;;;;;;4965097;28;20041;-73
2023/12/05 11:16:08;;;;;;;32.97;18.55;;;1.20;99.90;;;;;;4962166;28;20043;-73
2023/12/05 11:18:43;;;;;;;41.45;20.00;;;1.20;99.90;;;;;;4959153;28;20051;-77
2023/12/05 11:21:27;;;;;;;37.03;19.83;;;1.20;99.90;;;;;;4984443;28;20493;-76
2023/12/05 11:24:24;;;;;;;40.83;22.17;;;1.30;99.90;;;;;;4985865;28;20097;-76
2023/12/05 11:27:11;;;;;;;33.58;18.48;;;1.40;99.90;;;;;;4982115;28;20049;-77
2023/12/05 11:29:43;;;;;;;36.47;20.50;;;1.30;99.90;;;;;;4986763;28;20045;-77
2023/12/05 11:32:32;;;;;;;40.25;20.40;;;1.30;99.90;;;;;;4958167;29;20446;-77
2023/12/05 11:35:12;;;;;;;39.90;18.73;;;1.20;99.90;;;;;;4957520;28;20074;-77
2023/12/05 11:37:47;;;;;;;36.65;18.42;;;1.30;99.90;;;;;;4975588;28;20561;-75
2023/12/05 11:40:13;;;;;;;35.08;19.60;;;1.20;99.90;;;;;;4992016;28;20039;-77
2023/12/05 11:43:05;;;;;;;36.03;19.23;;;1.20;99.90;;;;;;4982272;28;20115;-77
2023/12/05 11:45:31;;;;;;;37.70;20.27;;;1.40;99.90;;;;;;4989560;28;20078;-78
2023/12/05 11:48:01;;;;;;;34.45;19.48;;;1.30;99.90;;;;;;4997710;28;20125;-78
2023/12/05 11:50:42;;;;;;;36.80;19.13;;;1.50;99.90;;;;;;4999435;28;20042;-79
2023/12/05 11:53:09;;;;;;;35.05;18.85;;;1.30;99.90;;;;;;5003041;28;20048;-79
2023/12/05 11:55:35;;;;;;;38.13;21.42;;;1.30;99.90;;;;;;5000245;28;20042;-79
2023/12/05 11:58:01;;;;;;;39.60;19.35;;;1.20;99.90;;;;;;5001584;28;20061;-79
2023/12/05 12:00:27;;;;;;;37.50;19.70;;;1.10;99.90;;;;;;4999966;28;20042;-78
2023/12/05 12:03:01;;;;;;;36.05;20.15;;;1.20;99.90;;;;;;5000751;28;20046;-79
2023/12/05 12:05:26;;;;;;;35.30;19.15;;;1.30;99.90;;;;;;4981409;28;20046;-78
2023/12/05 12:07:56;;;;;;;39.65;22.02;;;1.30;99.90;;;;;;4976817;28;20416;-78
2023/12/05 12:10:23;;;;;;;39.90;20.55;;;1.30;99.90;;;;;;4993028;28;20042;-78
2023/12/05 12:12:50;;;;;;;35.40;19.27;;;1.30;99.90;;;;;;4995515;28;20125;-78
2023/12/05 12:15:16;;;;;;;36.40;19.45;;;1.30;99.90;;;;;;4947943;28;20049;-78
2023/12/05 12:17:45;;;;;;;39.95;20.23;;;1.40;99.90;;;;;;4968720;28;20047;-79
2023/12/05 12:20:16;;;;;;;36.58;19.73;;;1.30;99.90;;;;;;4959317;28;20058;-79
2023/12/05 12:22:43;;;;;;;35.13;18.77;;;1.30;99.90;;;;;;4971172;28;20085;-78
2023/12/05 12:25:13;;;;;;;40.00;20.38;;;1.40;99.90;;;;;;4957064;28;20113;-79
2023/12/05 12:27:40;;;;;;;35.90;19.20;;;1.30;99.90;;;;;;4968938;28;20042;-79
2023/12/05 12:30:13;;;;;;;40.53;21.52;;;1.20;99.90;;;;;;4948121;29;20058;-79
2023/12/05 12:33:13;;;;;;;40.58;21.10;;;1.30;99.90;;;;;;4959685;29;20129;-79
2023/12/05 12:35:39;;;;;;;41.88;19.38;;;1.30;99.90;;;;;;4920387;29;20055;-79